KUGN/UGN METAR and TAF weather

Enter ICAO airport designator
Station Type Date Time Source
KUGN METAR 2019/12/12 08:55 UTC NOAA

KUGN 120855Z AUTO 20007KT 8SM CLR M06/M11 A3044 RMK AO2 SLP328 T10611106 56008


Station Type Date Time Source
KUGN Decoded METAR 2019/12/12 08:55 UTC NOAA

CHICAGO/WAUKEGAN REGIONAL, IL, United States (KUGN) 42-25N 087-52W
Dec 12, 2019 - 03:55 AM EST / 2019.12.12 0855 UTC
Wind: from the SSW (200 degrees) at 8 MPH (7 KT):0
Visibility: 8 mile(s):0
Sky conditions: clear
Temperature: 21.0 F (-6.1 C)
Windchill: 12 F (-11 C):1
Dew Point: 12.9 F (-10.6 C)
Relative Humidity: 70%
Pressure (altimeter): 30.44 in. Hg (1030 hPa)
Pressure tendency: 0.02 inches (0.8 hPa) lower than three hours ago
ob: KUGN 120855Z AUTO 20007KT 8SM CLR M06/M11 A3044 RMK AO2 SLP328 T10611106 56008
cycle: 9

Station Type Date Time Source
KUGN TAF UTC NOAA

Error!

Example: see airport list